createdAt,value
2017-09-11T00:00:41.897Z,990.88
2017-09-11T00:01:41.884Z,990.93
2017-09-11T00:02:41.891Z,990.89
2017-09-11T00:03:41.970Z,990.85
2017-09-11T00:04:41.930Z,990.89
2017-09-11T00:05:41.990Z,990.90
2017-09-11T00:06:42.057Z,990.83
2017-09-11T00:07:41.923Z,990.88
2017-09-11T00:08:41.975Z,990.78
2017-09-11T00:09:41.979Z,990.83
2017-09-11T00:10:41.928Z,990.77
2017-09-11T00:11:41.930Z,990.74
2017-09-11T00:12:41.886Z,990.74
2017-09-11T00:13:41.931Z,990.72
2017-09-11T00:14:41.982Z,990.73
2017-09-11T00:15:41.885Z,990.72
2017-09-11T00:16:42.003Z,990.69
2017-09-11T00:17:41.936Z,990.71
2017-09-11T00:18:41.981Z,990.75
2017-09-11T00:19:41.932Z,990.73
2017-09-11T00:20:41.944Z,990.74
2017-09-11T00:21:41.888Z,990.70
2017-09-11T00:22:41.918Z,990.75
2017-09-11T00:23:41.972Z,990.76
2017-09-11T00:24:42.004Z,990.75
2017-09-11T00:25:41.980Z,990.81
2017-09-11T00:26:41.983Z,990.77
2017-09-11T00:27:41.944Z,990.74
2017-09-11T00:28:41.984Z,990.72
2017-09-11T00:29:41.989Z,990.67
2017-09-11T00:31:41.941Z,990.73
2017-09-11T00:32:41.993Z,990.72
2017-09-11T00:33:41.978Z,990.69
2017-09-11T00:34:41.886Z,990.67
2017-09-11T00:35:41.993Z,990.67
2017-09-11T00:36:41.913Z,990.67
2017-09-11T00:37:42.093Z,990.71
2017-09-11T00:38:41.940Z,990.68
2017-09-11T00:39:41.955Z,990.63
2017-09-11T00:40:41.918Z,990.66
2017-09-11T00:41:41.956Z,990.65
2017-09-11T00:42:41.987Z,990.57
2017-09-11T00:43:41.997Z,990.64
2017-09-11T00:44:42.002Z,990.56
2017-09-11T00:45:41.930Z,990.56
2017-09-11T00:46:41.951Z,990.53
2017-09-11T00:47:41.951Z,990.59
2017-09-11T00:48:42.039Z,990.57
2017-09-11T00:49:42.005Z,990.51
2017-09-11T00:50:41.998Z,990.52
2017-09-11T00:51:41.955Z,990.56
2017-09-11T00:52:41.953Z,990.54
2017-09-11T00:53:41.955Z,990.51
2017-09-11T00:54:41.966Z,990.49
2017-09-11T00:55:41.955Z,990.46
2017-09-11T00:56:41.964Z,990.41
2017-09-11T00:57:42.008Z,990.42
2017-09-11T00:58:42.011Z,990.37
2017-09-11T00:59:41.972Z,990.29
2017-09-11T01:00:42.002Z,990.28
2017-09-11T01:01:41.962Z,990.29
2017-09-11T01:02:41.939Z,990.18
2017-09-11T01:03:41.975Z,990.20
2017-09-11T01:04:41.958Z,990.24
2017-09-11T01:05:42.011Z,990.27
2017-09-11T01:06:42.008Z,990.28
2017-09-11T01:07:42.014Z,990.25
2017-09-11T01:08:41.967Z,990.30
2017-09-11T01:09:42.008Z,990.29
2017-09-11T01:10:42.019Z,990.29
2017-09-11T01:11:41.992Z,990.35
2017-09-11T01:12:42.018Z,990.40
2017-09-11T01:13:41.907Z,990.33
2017-09-11T01:14:41.930Z,990.37
2017-09-11T01:15:41.961Z,990.32
2017-09-11T01:16:41.910Z,990.32
2017-09-11T01:17:41.943Z,990.23
2017-09-11T01:18:41.964Z,990.17
2017-09-11T01:19:41.907Z,990.13
2017-09-11T01:20:41.936Z,990.09
2017-09-11T01:21:41.908Z,990.09
2017-09-11T01:22:41.981Z,990.05
2017-09-11T01:23:42.021Z,990.10
2017-09-11T01:24:42.019Z,990.05
2017-09-11T01:25:41.981Z,990.06
2017-09-11T01:26:42.022Z,990.08
2017-09-11T01:27:41.984Z,990.08
2017-09-11T01:28:42.024Z,990.09
2017-09-11T01:29:41.979Z,990.05
2017-09-11T01:30:41.985Z,990.05
2017-09-11T01:31:41.983Z,990.02
2017-09-11T01:32:41.980Z,990.03
2017-09-11T01:33:42.030Z,990.03
2017-09-11T01:34:42.009Z,990.07
2017-09-11T01:35:41.963Z,990.01
2017-09-11T01:36:41.981Z,990.00
2017-09-11T01:37:41.933Z,990.03
2017-09-11T01:38:41.983Z,989.96
2017-09-11T01:39:41.963Z,989.89
2017-09-11T01:40:42.053Z,989.87
2017-09-11T01:41:41.986Z,989.84
2017-09-11T01:42:41.997Z,989.75
2017-09-11T01:43:41.986Z,989.78
2017-09-11T01:44:41.962Z,989.75
2017-09-11T01:45:41.997Z,989.74
2017-09-11T01:46:42.023Z,989.65
2017-09-11T01:47:42.022Z,989.69
2017-09-11T01:48:41.959Z,989.67
2017-09-11T01:49:42.023Z,989.72
2017-09-11T01:50:41.951Z,989.69
2017-09-11T01:51:41.984Z,989.64
2017-09-11T01:52:41.995Z,989.58
2017-09-11T01:53:41.960Z,989.53
2017-09-11T01:54:41.986Z,989.51
2017-09-11T01:55:41.929Z,989.48
2017-09-11T01:56:41.929Z,989.44
2017-09-11T01:57:42.009Z,989.38
2017-09-11T01:58:41.990Z,989.35
2017-09-11T01:59:41.991Z,989.32
2017-09-11T02:00:41.957Z,989.36
2017-09-11T02:01:41.956Z,989.33
2017-09-11T02:02:41.960Z,989.33
2017-09-11T02:03:41.932Z,989.37
2017-09-11T02:04:42.045Z,989.38
2017-09-11T02:05:42.044Z,989.44
2017-09-11T02:06:42.054Z,989.44
2017-09-11T02:07:42.047Z,989.40
2017-09-11T02:08:42.069Z,989.44
2017-09-11T02:09:42.069Z,989.39
2017-09-11T02:10:42.051Z,989.40
2017-09-11T02:11:42.008Z,989.36
2017-09-11T02:12:42.049Z,989.33
2017-09-11T02:13:42.007Z,989.35
2017-09-11T02:14:42.043Z,989.31
2017-09-11T02:15:41.994Z,989.24
2017-09-11T02:16:41.977Z,989.20
2017-09-11T02:17:41.983Z,989.20
2017-09-11T02:18:42.042Z,989.16
2017-09-11T02:19:41.974Z,989.20
2017-09-11T02:20:41.999Z,989.12
2017-09-11T02:21:42.005Z,989.12
2017-09-11T02:22:41.956Z,989.09
2017-09-11T02:23:41.951Z,989.09
2017-09-11T02:24:41.970Z,989.05
2017-09-11T02:25:41.921Z,989.11
2017-09-11T02:26:41.934Z,989.04
2017-09-11T02:27:41.927Z,989.02
2017-09-11T02:28:41.937Z,988.95
2017-09-11T02:29:41.999Z,988.92
2017-09-11T02:30:41.933Z,988.88
2017-09-11T02:31:41.977Z,988.89
2017-09-11T02:32:41.954Z,988.89
2017-09-11T02:33:41.933Z,988.87
2017-09-11T02:34:41.956Z,988.88
2017-09-11T02:35:41.979Z,988.79
2017-09-11T02:36:41.989Z,988.79
2017-09-11T02:37:41.953Z,988.79
2017-09-11T02:38:41.986Z,988.75
2017-09-11T02:39:41.985Z,988.80
2017-09-11T02:40:41.956Z,988.77
2017-09-11T02:41:42.017Z,988.82
2017-09-11T02:42:41.958Z,988.78
2017-09-11T02:43:41.984Z,988.74
2017-09-11T02:44:41.903Z,988.66
2017-09-11T02:45:41.898Z,988.73
2017-09-11T02:46:41.952Z,988.66
2017-09-11T02:47:41.903Z,988.64
2017-09-11T02:48:41.976Z,988.61
2017-09-11T02:49:41.979Z,988.63
2017-09-11T02:50:41.947Z,988.60
2017-09-11T02:51:41.964Z,988.65
2017-09-11T02:52:41.963Z,988.53
2017-09-11T02:53:41.981Z,988.54
2017-09-11T02:54:42.030Z,988.52
2017-09-11T02:55:42.009Z,988.54
2017-09-11T02:56:42.092Z,988.51
2017-09-11T02:57:42.026Z,988.51
2017-09-11T02:58:41.994Z,988.54
2017-09-11T02:59:42.030Z,988.52
2017-09-11T03:00:42.046Z,988.48
2017-09-11T03:01:42.095Z,988.53
2017-09-11T03:02:42.042Z,988.46
2017-09-11T03:03:42.040Z,988.45
2017-09-11T03:04:42.032Z,988.45
2017-09-11T03:05:42.048Z,988.43
2017-09-11T03:06:42.081Z,988.37
2017-09-11T03:07:42.036Z,988.41
2017-09-11T03:08:42.036Z,988.42
2017-09-11T03:09:42.038Z,988.37
2017-09-11T03:10:42.088Z,988.32
2017-09-11T03:11:42.041Z,988.24
2017-09-11T03:12:42.040Z,988.35
2017-09-11T03:13:42.026Z,988.30
2017-09-11T03:14:42.008Z,988.30
2017-09-11T03:15:42.079Z,988.23
2017-09-11T03:16:42.077Z,988.25
2017-09-11T03:17:42.083Z,988.28
2017-09-11T03:18:42.076Z,988.26
2017-09-11T03:19:42.046Z,988.28
2017-09-11T03:20:42.083Z,988.24
2017-09-11T03:21:42.080Z,988.23
2017-09-11T03:22:42.079Z,988.31
2017-09-11T03:23:41.985Z,988.28
2017-09-11T03:24:41.983Z,988.23
2017-09-11T03:25:42.115Z,988.20
2017-09-11T03:26:42.014Z,988.20
2017-09-11T03:27:42.015Z,988.20
2017-09-11T03:28:41.985Z,988.23
2017-09-11T03:29:41.986Z,988.14
2017-09-11T03:30:42.017Z,988.18
2017-09-11T03:31:42.019Z,988.16
2017-09-11T03:32:42.018Z,988.19
2017-09-11T03:33:41.989Z,988.18
2017-09-11T03:34:42.088Z,988.12
2017-09-11T03:35:42.014Z,988.18
2017-09-11T03:36:42.066Z,988.10
2017-09-11T03:37:42.029Z,988.11
2017-09-11T03:38:42.022Z,988.08
2017-09-11T03:39:42.026Z,988.10
2017-09-11T03:40:42.072Z,988.06
2017-09-11T03:41:42.021Z,988.12
2017-09-11T03:42:42.038Z,988.05
2017-09-11T03:43:42.091Z,988.12
2017-09-11T03:44:42.046Z,988.13
2017-09-11T03:45:42.005Z,988.11
2017-09-11T03:46:41.975Z,988.07
2017-09-11T03:47:42.148Z,988.11
2017-09-11T03:48:42.074Z,988.11
2017-09-11T03:49:42.014Z,988.11
2017-09-11T03:50:42.064Z,988.11
2017-09-11T03:51:41.974Z,988.12
2017-09-11T03:52:42.005Z,988.09
2017-09-11T03:53:42.010Z,988.09
2017-09-11T03:54:42.003Z,988.10
2017-09-11T03:55:42.065Z,988.13
2017-09-11T03:56:42.127Z,988.10
2017-09-11T03:57:42.064Z,988.12
2017-09-11T03:58:42.027Z,988.10
2017-09-11T03:59:42.063Z,988.11
2017-09-11T04:00:42.066Z,988.12
2017-09-11T04:01:42.031Z,988.13
2017-09-11T04:02:42.030Z,988.13
2017-09-11T04:03:42.065Z,988.11
2017-09-11T04:04:42.071Z,988.09
2017-09-11T04:05:42.021Z,988.10
2017-09-11T04:06:42.074Z,988.06
2017-09-11T04:07:42.074Z,988.07
2017-09-11T04:08:42.074Z,987.99
2017-09-11T04:09:42.122Z,988.11
2017-09-11T04:10:42.177Z,987.98
2017-09-11T04:11:42.073Z,988.01
2017-09-11T04:12:42.077Z,988.02
2017-09-11T04:13:42.123Z,987.97
2017-09-11T04:14:42.039Z,988.00
2017-09-11T04:15:42.043Z,987.92
2017-09-11T04:17:42.025Z,988.00
2017-09-11T04:18:42.073Z,988.01
2017-09-11T04:19:42.091Z,988.01
2017-09-11T04:20:42.092Z,988.04
2017-09-11T04:21:42.088Z,988.01
2017-09-11T04:22:42.045Z,988.00
2017-09-11T04:23:42.026Z,987.99
2017-09-11T04:24:42.129Z,987.97
2017-09-11T04:25:42.128Z,987.96
2017-09-11T04:26:42.081Z,987.93
2017-09-11T04:27:42.127Z,987.94
2017-09-11T04:28:42.084Z,987.94
2017-09-11T04:29:42.137Z,987.92
2017-09-11T04:30:42.134Z,987.86
2017-09-11T04:31:42.091Z,987.86
2017-09-11T04:32:42.094Z,987.76
2017-09-11T04:33:42.127Z,987.74
2017-09-11T04:34:42.092Z,987.72
2017-09-11T04:35:42.127Z,987.72
2017-09-11T04:36:42.123Z,987.71
2017-09-11T04:37:42.104Z,987.74
2017-09-11T04:38:42.039Z,987.74
2017-09-11T04:39:42.132Z,987.76
2017-09-11T04:40:42.160Z,987.73
2017-09-11T04:41:42.036Z,987.81
2017-09-11T04:42:42.065Z,987.86
2017-09-11T04:43:42.107Z,987.82
2017-09-11T04:44:42.132Z,987.85
2017-09-11T04:45:42.122Z,987.87
2017-09-11T04:47:42.122Z,987.87
2017-09-11T04:48:42.069Z,987.88
2017-09-11T04:49:42.118Z,987.84
2017-09-11T04:50:42.041Z,987.88
2017-09-11T04:51:42.071Z,987.90
2017-09-11T04:52:42.099Z,987.83
2017-09-11T04:53:42.143Z,987.89
2017-09-11T04:54:42.056Z,987.84
2017-09-11T04:55:42.053Z,987.82
2017-09-11T04:56:42.052Z,987.81
2017-09-11T04:57:42.131Z,987.85
2017-09-11T04:58:41.981Z,987.84
2017-09-11T04:59:42.062Z,987.90
2017-09-11T05:00:42.040Z,987.80
2017-09-11T05:01:42.042Z,987.80
2017-09-11T05:02:42.028Z,987.82
2017-09-11T05:03:42.055Z,987.79
2017-09-11T05:04:42.073Z,987.75
2017-09-11T05:05:42.060Z,987.80
2017-09-11T05:06:42.065Z,987.74
2017-09-11T05:07:42.154Z,987.79
2017-09-11T05:08:42.103Z,987.76
2017-09-11T05:09:42.067Z,987.78
2017-09-11T05:10:42.115Z,987.78
2017-09-11T05:11:42.159Z,987.77
2017-09-11T05:12:42.161Z,987.88
2017-09-11T05:13:42.110Z,987.81
2017-09-11T05:14:42.077Z,987.80
2017-09-11T05:15:42.110Z,987.78
2017-09-11T05:16:42.084Z,987.84
2017-09-11T05:17:42.079Z,987.86
2017-09-11T05:18:42.079Z,987.93
2017-09-11T05:19:42.124Z,987.86
2017-09-11T05:20:42.046Z,987.77
2017-09-11T05:21:42.118Z,987.88
2017-09-11T05:22:42.078Z,987.87
2017-09-11T05:23:42.115Z,987.88
2017-09-11T05:24:42.118Z,987.90
2017-09-11T05:25:42.085Z,987.90
2017-09-11T05:26:42.161Z,987.90
2017-09-11T05:27:42.083Z,987.84
2017-09-11T05:28:42.161Z,987.86
2017-09-11T05:29:42.147Z,987.89
2017-09-11T05:30:42.067Z,987.81
2017-09-11T05:31:42.123Z,987.96
2017-09-11T05:32:42.098Z,987.88
2017-09-11T05:33:42.131Z,987.91
2017-09-11T05:34:42.083Z,987.87
2017-09-11T05:35:42.070Z,987.91
2017-09-11T05:36:42.094Z,987.90
2017-09-11T05:37:42.083Z,987.89
2017-09-11T05:38:42.083Z,987.92
2017-09-11T05:39:42.092Z,987.87
2017-09-11T05:40:42.070Z,987.86
2017-09-11T05:41:42.015Z,987.90
2017-09-11T05:42:42.095Z,987.98
2017-09-11T05:43:42.090Z,987.93
2017-09-11T05:44:42.170Z,987.99
2017-09-11T05:45:42.135Z,987.96
2017-09-11T05:46:42.079Z,988.04
2017-09-11T05:47:42.131Z,988.01
2017-09-11T05:48:42.108Z,987.99
2017-09-11T05:49:42.135Z,987.96
2017-09-11T05:50:42.090Z,987.96
2017-09-11T05:51:42.113Z,988.05
2017-09-11T05:52:42.176Z,987.97
2017-09-11T05:53:42.100Z,987.97
2017-09-11T05:54:42.187Z,987.96
2017-09-11T05:55:42.143Z,987.90
2017-09-11T05:56:42.199Z,987.90
2017-09-11T05:57:42.132Z,987.86
2017-09-11T05:58:42.132Z,987.88
2017-09-11T05:59:42.190Z,987.93
2017-09-11T06:00:42.161Z,987.84
2017-09-11T06:01:42.135Z,987.83
2017-09-11T06:02:42.138Z,987.84
2017-09-11T06:03:42.142Z,987.89
2017-09-11T06:04:42.188Z,987.92
2017-09-11T06:05:42.081Z,987.88
2017-09-11T06:06:42.149Z,987.92
2017-09-11T06:07:42.171Z,987.93
2017-09-11T06:08:42.144Z,987.87
2017-09-11T06:09:42.174Z,987.91
2017-09-11T06:10:42.147Z,988.01
2017-09-11T06:11:42.190Z,987.93
2017-09-11T06:12:42.149Z,987.86
2017-09-11T06:13:42.145Z,987.97
2017-09-11T06:14:42.191Z,988.03
2017-09-11T06:15:42.190Z,988.00
2017-09-11T06:16:42.157Z,987.95
2017-09-11T06:17:42.110Z,987.96
2017-09-11T06:18:42.146Z,987.93
2017-09-11T06:19:42.110Z,987.94
2017-09-11T06:20:42.205Z,987.90
2017-09-11T06:21:42.164Z,987.98
2017-09-11T06:22:42.117Z,987.93
2017-09-11T06:23:42.103Z,987.95
2017-09-11T06:24:42.123Z,987.94
2017-09-11T06:25:42.114Z,987.97
2017-09-11T06:26:42.113Z,987.98
2017-09-11T06:27:42.087Z,987.92
2017-09-11T06:28:42.115Z,987.90
2017-09-11T06:29:42.117Z,987.89
2017-09-11T06:30:42.088Z,987.85
2017-09-11T06:31:42.092Z,987.80
2017-09-11T06:32:42.118Z,987.83
2017-09-11T06:33:42.127Z,987.89
2017-09-11T06:34:42.204Z,987.83
2017-09-11T06:35:42.210Z,987.85
2017-09-11T06:36:42.158Z,987.86
2017-09-11T06:37:42.209Z,987.87
2017-09-11T06:38:42.140Z,987.87
2017-09-11T06:39:42.228Z,987.92
2017-09-11T06:40:42.203Z,987.92
2017-09-11T06:41:42.214Z,988.00
2017-09-11T06:42:42.207Z,987.99
2017-09-11T06:43:42.164Z,987.92
2017-09-11T06:44:42.124Z,987.91
2017-09-11T06:45:42.125Z,987.96
2017-09-11T06:46:42.098Z,987.91
2017-09-11T06:47:42.102Z,987.85
2017-09-11T06:48:42.125Z,987.86
2017-09-11T06:49:42.099Z,987.87
2017-09-11T06:50:42.159Z,987.85
2017-09-11T06:51:42.161Z,987.88
2017-09-11T06:52:42.163Z,987.88
2017-09-11T06:53:42.106Z,987.85
2017-09-11T06:54:42.106Z,987.85
2017-09-11T06:55:42.132Z,987.84
2017-09-11T06:56:42.105Z,987.83
2017-09-11T06:57:42.133Z,987.89
2017-09-11T06:58:42.170Z,987.85
2017-09-11T06:59:42.135Z,987.87
2017-09-11T07:00:42.169Z,987.86
2017-09-11T07:01:42.141Z,987.85
2017-09-11T07:02:42.140Z,987.88
2017-09-11T07:03:42.245Z,987.89
2017-09-11T07:04:42.179Z,987.90
2017-09-11T07:05:42.170Z,987.93
2017-09-11T07:06:42.138Z,987.99
2017-09-11T07:07:42.143Z,988.03
2017-09-11T07:08:42.140Z,987.93
2017-09-11T07:09:42.115Z,987.93
2017-09-11T07:10:42.178Z,987.99
2017-09-11T07:11:42.138Z,987.96
2017-09-11T07:12:42.117Z,987.96
2017-09-11T07:13:42.180Z,988.03
2017-09-11T07:14:42.108Z,988.00
2017-09-11T07:15:42.104Z,988.01
2017-09-11T07:16:42.137Z,988.02
2017-09-11T07:17:42.120Z,987.98
2017-09-11T07:18:42.122Z,988.00
2017-09-11T07:19:42.144Z,988.03
2017-09-11T07:20:42.125Z,988.06
2017-09-11T07:21:42.137Z,987.97
2017-09-11T07:22:42.102Z,987.95
2017-09-11T07:23:42.123Z,987.97
2017-09-11T07:24:42.153Z,987.98
2017-09-11T07:25:42.158Z,987.96
2017-09-11T07:26:42.273Z,987.98
2017-09-11T07:27:42.187Z,987.93
2017-09-11T07:28:42.099Z,988.01
2017-09-11T07:29:42.151Z,987.99
2017-09-11T07:30:42.155Z,988.04
2017-09-11T07:31:42.141Z,988.05
2017-09-11T07:32:42.138Z,988.06
2017-09-11T07:33:42.105Z,988.06
2017-09-11T07:34:42.234Z,988.06
2017-09-11T07:35:42.243Z,988.06
2017-09-11T07:36:42.195Z,988.08
2017-09-11T07:37:42.202Z,988.03
2017-09-11T07:38:42.146Z,988.08
2017-09-11T07:39:42.200Z,988.05
2017-09-11T07:40:42.180Z,988.05
2017-09-11T07:41:42.185Z,988.02
2017-09-11T07:42:42.176Z,988.08
2017-09-11T07:43:42.222Z,988.02
2017-09-11T07:44:42.161Z,988.13
2017-09-11T07:45:42.141Z,988.13
2017-09-11T07:46:42.140Z,988.16
2017-09-11T07:47:42.205Z,988.11
2017-09-11T07:48:42.180Z,988.12
2017-09-11T07:49:42.146Z,988.09
2017-09-11T07:50:42.200Z,988.04
2017-09-11T07:51:42.167Z,987.98
2017-09-11T07:52:42.229Z,988.07
2017-09-11T07:53:42.243Z,988.17
2017-09-11T07:54:42.169Z,988.23
2017-09-11T07:55:42.194Z,988.15
2017-09-11T07:56:42.202Z,988.14
2017-09-11T07:57:42.172Z,988.18
2017-09-11T07:58:42.204Z,988.08
2017-09-11T07:59:42.168Z,988.11
2017-09-11T08:00:42.206Z,988.14
2017-09-11T08:01:42.171Z,988.12
2017-09-11T08:02:42.207Z,988.17
2017-09-11T08:03:42.201Z,988.15
2017-09-11T08:04:42.209Z,988.17
2017-09-11T08:05:42.196Z,988.15
2017-09-11T08:06:42.216Z,988.20
2017-09-11T08:07:42.208Z,988.24
2017-09-11T08:08:42.196Z,988.23
2017-09-11T08:09:42.287Z,988.19
2017-09-11T08:10:42.219Z,988.24
2017-09-11T08:11:42.283Z,988.22
2017-09-11T08:12:42.224Z,988.23
2017-09-11T08:13:42.200Z,988.17
2017-09-11T08:14:42.222Z,988.24
2017-09-11T08:15:42.186Z,988.21
2017-09-11T08:16:42.259Z,988.22
2017-09-11T08:18:42.266Z,988.24
2017-09-11T08:19:42.223Z,988.19
2017-09-11T08:20:42.268Z,988.22
2017-09-11T08:21:42.220Z,988.22
2017-09-11T08:22:42.266Z,988.15
2017-09-11T08:23:42.231Z,988.12
2017-09-11T08:24:42.248Z,988.17
2017-09-11T08:25:42.162Z,988.17
2017-09-11T08:26:42.160Z,988.19
2017-09-11T08:27:42.188Z,988.23
2017-09-11T08:28:42.226Z,988.25
2017-09-11T08:29:42.290Z,988.16
2017-09-11T08:30:42.161Z,988.12
2017-09-11T08:31:42.186Z,988.13
2017-09-11T08:32:42.187Z,988.14
2017-09-11T08:33:42.228Z,988.12
2017-09-11T08:34:42.223Z,988.10
2017-09-11T08:35:42.168Z,988.13
2017-09-11T08:36:42.172Z,988.13
2017-09-11T08:37:42.195Z,988.10
2017-09-11T08:38:42.238Z,988.11
2017-09-11T08:39:42.210Z,988.08
2017-09-11T08:40:42.235Z,988.07
2017-09-11T08:41:42.178Z,988.12
2017-09-11T08:42:42.259Z,988.07
2017-09-11T08:43:42.176Z,988.14
2017-09-11T08:44:42.196Z,988.13
2017-09-11T08:45:42.439Z,988.11
2017-09-11T08:46:42.181Z,988.13
2017-09-11T08:47:42.232Z,988.14
2017-09-11T08:48:42.242Z,988.13
2017-09-11T08:49:42.201Z,988.14
2017-09-11T08:50:42.310Z,988.10
2017-09-11T08:51:42.285Z,988.18
2017-09-11T08:52:42.241Z,988.17
2017-09-11T08:53:42.244Z,988.15
2017-09-11T08:54:42.215Z,988.16
2017-09-11T08:55:42.293Z,988.20
2017-09-11T08:56:42.286Z,988.22
2017-09-11T08:57:42.238Z,988.17
2017-09-11T08:58:42.193Z,988.20
2017-09-11T08:59:42.192Z,988.15
2017-09-11T09:00:42.193Z,988.21
2017-09-11T09:01:42.206Z,988.24
2017-09-11T09:02:42.189Z,988.24
2017-09-11T09:03:42.245Z,988.31
2017-09-11T09:04:42.297Z,988.28
2017-09-11T09:05:42.194Z,988.40
2017-09-11T09:06:42.316Z,988.43
2017-09-11T09:07:42.253Z,988.44
2017-09-11T09:08:42.214Z,988.50
2017-09-11T09:09:42.296Z,988.51
2017-09-11T09:10:42.293Z,988.46
2017-09-11T09:11:42.248Z,988.59
2017-09-11T09:12:42.255Z,988.64
2017-09-11T09:13:42.254Z,988.68
2017-09-11T09:14:42.264Z,988.77
2017-09-11T09:15:42.252Z,988.80
2017-09-11T09:16:42.319Z,988.88
2017-09-11T09:17:42.204Z,988.85
2017-09-11T09:18:42.283Z,988.86
2017-09-11T09:19:42.260Z,988.82
2017-09-11T09:20:42.259Z,988.82
2017-09-11T09:21:42.224Z,988.80
2017-09-11T09:22:42.258Z,988.75
2017-09-11T09:23:42.237Z,988.76
2017-09-11T09:24:42.257Z,988.77
2017-09-11T09:25:42.270Z,988.72
2017-09-11T09:26:42.266Z,988.70
2017-09-11T09:27:42.294Z,988.66
2017-09-11T09:28:42.234Z,988.70
2017-09-11T09:29:42.240Z,988.67
2017-09-11T09:30:42.236Z,988.69
2017-09-11T09:31:42.246Z,988.63
2017-09-11T09:32:42.239Z,988.66
2017-09-11T09:33:42.236Z,988.60
2017-09-11T09:34:42.243Z,988.61
2017-09-11T09:35:42.257Z,988.45
2017-09-11T09:36:42.228Z,988.43
2017-09-11T09:37:42.202Z,988.49
2017-09-11T09:38:42.232Z,988.45
2017-09-11T09:39:42.266Z,988.47
2017-09-11T09:40:42.272Z,988.36
2017-09-11T09:41:42.231Z,988.39
2017-09-11T09:42:42.205Z,988.35
2017-09-11T09:43:42.264Z,988.40
2017-09-11T09:44:42.267Z,988.42
2017-09-11T09:45:42.283Z,988.38
2017-09-11T09:46:42.271Z,988.37
2017-09-11T09:47:42.278Z,988.31
2017-09-11T09:48:42.320Z,988.17
2017-09-11T09:49:42.235Z,988.15
2017-09-11T09:50:42.287Z,988.22
2017-09-11T09:51:42.282Z,988.25
2017-09-11T09:52:42.275Z,988.22
2017-09-11T09:53:42.321Z,988.26
2017-09-11T09:54:42.226Z,988.13
2017-09-11T09:55:42.287Z,988.21
2017-09-11T09:56:42.240Z,988.22
2017-09-11T09:57:42.230Z,988.25
2017-09-11T09:58:42.218Z,988.23
2017-09-11T09:59:42.223Z,988.24
2017-09-11T10:00:42.248Z,988.31
2017-09-11T10:01:42.235Z,988.33
2017-09-11T10:02:42.225Z,988.41
2017-09-11T10:03:42.202Z,988.33
2017-09-11T10:04:42.198Z,988.25
2017-09-11T10:05:42.279Z,988.29
2017-09-11T10:06:42.282Z,988.31
2017-09-11T10:07:42.332Z,988.36
2017-09-11T10:08:42.286Z,988.26
2017-09-11T10:09:42.221Z,988.33
2017-09-11T10:10:42.280Z,988.35
2017-09-11T10:11:42.222Z,988.34
2017-09-11T10:12:42.286Z,988.36
2017-09-11T10:13:42.254Z,988.40
2017-09-11T10:14:42.225Z,988.36
2017-09-11T10:15:42.293Z,988.38
2017-09-11T10:16:42.267Z,988.45
2017-09-11T10:17:42.293Z,988.44
2017-09-11T10:18:42.342Z,988.48
2017-09-11T10:19:42.300Z,988.48
2017-09-11T10:20:42.295Z,988.48
2017-09-11T10:21:42.270Z,988.46
2017-09-11T10:22:42.324Z,988.44
2017-09-11T10:23:42.302Z,988.50
2017-09-11T10:24:42.242Z,988.43
2017-09-11T10:25:42.303Z,988.46
2017-09-11T10:26:42.303Z,988.48
2017-09-11T10:27:42.258Z,988.53
2017-09-11T10:28:42.345Z,988.52
2017-09-11T10:29:42.279Z,988.52
2017-09-11T10:30:42.281Z,988.53
2017-09-11T10:31:42.281Z,988.44
2017-09-11T10:32:42.348Z,988.52
2017-09-11T10:33:42.351Z,988.44
2017-09-11T10:34:42.332Z,988.45
2017-09-11T10:35:42.343Z,988.42
2017-09-11T10:36:42.324Z,988.43
2017-09-11T10:37:42.262Z,988.39
2017-09-11T10:38:42.305Z,988.39
2017-09-11T10:39:42.251Z,988.37
2017-09-11T10:40:42.280Z,988.35
2017-09-11T10:41:42.286Z,988.36
2017-09-11T10:42:42.287Z,988.32
2017-09-11T10:43:42.362Z,988.37
2017-09-11T10:44:42.346Z,988.37
2017-09-11T10:45:42.354Z,988.39
2017-09-11T10:46:42.310Z,988.38
2017-09-11T10:47:42.355Z,988.37
2017-09-11T10:48:42.314Z,988.34
2017-09-11T10:49:42.318Z,988.34
2017-09-11T10:50:42.312Z,988.32
2017-09-11T10:51:42.322Z,988.33
2017-09-11T10:52:42.287Z,988.34
2017-09-11T10:53:42.368Z,988.35
2017-09-11T10:54:42.321Z,988.34
2017-09-11T10:55:42.316Z,988.39
2017-09-11T10:56:42.309Z,988.34
2017-09-11T10:57:42.331Z,988.42
2017-09-11T10:58:42.291Z,988.40
2017-09-11T10:59:42.366Z,988.38
2017-09-11T11:00:42.323Z,988.43
2017-09-11T11:01:42.278Z,988.44
2017-09-11T11:02:42.300Z,988.46
2017-09-11T11:03:42.318Z,988.41
2017-09-11T11:04:42.347Z,988.44
2017-09-11T11:05:42.372Z,988.42
2017-09-11T11:06:42.330Z,988.48
2017-09-11T11:07:42.318Z,988.50
2017-09-11T11:08:42.323Z,988.50
2017-09-11T11:09:42.310Z,988.45
2017-09-11T11:11:42.369Z,988.48
2017-09-11T11:12:42.279Z,988.45
2017-09-11T11:13:42.330Z,988.50
2017-09-11T11:14:42.368Z,988.47
2017-09-11T11:15:42.320Z,988.50
2017-09-11T11:16:42.263Z,988.48
2017-09-11T11:17:42.320Z,988.49
2017-09-11T11:18:42.325Z,988.51
2017-09-11T11:19:42.263Z,988.52
2017-09-11T11:20:42.289Z,988.54
2017-09-11T11:21:42.321Z,988.53
2017-09-11T11:22:42.264Z,988.54
2017-09-11T11:23:42.320Z,988.52
2017-09-11T11:24:42.290Z,988.52
2017-09-11T11:25:42.286Z,988.51
2017-09-11T11:26:42.309Z,988.51
2017-09-11T11:27:42.271Z,988.54
2017-09-11T11:28:42.298Z,988.57
2017-09-11T11:29:42.340Z,988.56
2017-09-11T11:30:42.372Z,988.52
2017-09-11T11:31:42.328Z,988.46
2017-09-11T11:32:42.275Z,988.49
2017-09-11T11:33:42.336Z,988.41
2017-09-11T11:34:42.305Z,988.39
2017-09-11T11:35:42.370Z,988.37
2017-09-11T11:36:42.313Z,988.40
2017-09-11T11:37:42.279Z,988.42
2017-09-11T11:38:42.310Z,988.40
2017-09-11T11:39:42.279Z,988.42
2017-09-11T11:40:42.307Z,988.40
2017-09-11T11:41:42.319Z,988.36
2017-09-11T11:42:42.282Z,988.39
2017-09-11T11:43:42.301Z,988.40
2017-09-11T11:44:42.369Z,988.40
2017-09-11T11:45:42.319Z,988.43
2017-09-11T11:46:42.291Z,988.43
2017-09-11T11:47:42.290Z,988.49
2017-09-11T11:48:42.397Z,988.45
2017-09-11T11:49:42.343Z,988.44
2017-09-11T11:50:42.358Z,988.43
2017-09-11T11:51:42.315Z,988.42
2017-09-11T11:52:42.370Z,988.46
2017-09-11T11:53:42.357Z,988.47
2017-09-11T11:54:42.359Z,988.39
2017-09-11T11:55:42.403Z,988.43
2017-09-11T11:56:42.560Z,988.40
2017-09-11T11:57:42.421Z,988.36
2017-09-11T11:58:42.390Z,988.43
2017-09-11T11:59:42.321Z,988.46
2017-09-11T12:00:42.310Z,988.50
2017-09-11T12:01:42.301Z,988.46
2017-09-11T12:02:42.423Z,988.38
2017-09-11T12:03:42.336Z,988.35
2017-09-11T12:04:42.404Z,988.38
2017-09-11T12:05:42.386Z,988.41
2017-09-11T12:06:42.360Z,988.41
2017-09-11T12:08:42.325Z,988.48
2017-09-11T12:09:42.366Z,988.46
2017-09-11T12:10:42.318Z,988.41
2017-09-11T12:11:42.401Z,988.47
2017-09-11T12:12:42.382Z,988.50
2017-09-11T12:13:42.393Z,988.53
2017-09-11T12:14:42.306Z,988.50
2017-09-11T12:15:42.325Z,988.45
2017-09-11T12:16:42.345Z,988.43
2017-09-11T12:17:42.415Z,988.44
2017-09-11T12:18:42.359Z,988.46
2017-09-11T12:19:42.310Z,988.48
2017-09-11T12:20:42.362Z,988.46
2017-09-11T12:21:42.390Z,988.50
2017-09-11T12:22:42.325Z,988.50
2017-09-11T12:23:42.316Z,988.49
2017-09-11T12:24:42.376Z,988.52
2017-09-11T12:25:42.307Z,988.55
2017-09-11T12:26:42.342Z,988.55
2017-09-11T12:27:42.370Z,988.50
2017-09-11T12:28:42.372Z,988.52
2017-09-11T12:29:42.311Z,988.49
2017-09-11T12:30:42.311Z,988.49
2017-09-11T12:31:42.404Z,988.51
2017-09-11T12:32:42.413Z,988.54
2017-09-11T12:33:42.374Z,988.56
2017-09-11T12:34:42.316Z,988.58